Josephine Anne — WDD9858 — position and weather

sailwx.info

Track history (hours):
 
Tides and Currents Weather Stations Pressure Air Temp Water Temp Dewpoint Dewpoint Depression Visibility Wind Speed Wind Dir Waves Ship Positions

Josephine Anne

Owner: E.N. Bisso & Son, Inc., Metairie, LA. More information available from US FCC via Universal Licensing System and Coast Guard Vessel Documentation Center.

Last reported at 2015-Aug-04 10:18 UTC. Time now 2015-Aug-04 17:54 UTC.
Position N 29°55' W 090°08'.

Length 29 m; draft 4.3 m.

Type: Tug. MMSI: 367317270.

Date/timePositionNaut miles runAvg speedWind from/ knotsBaromVisibWave heightAir tempDewpointWater temp
2015-Aug-04 10:18N 29°55' W 090°08'5 5.9
2015-Aug-04 09:31N 29°57' W 090°03'3 3.0
2015-Aug-04 08:24N 29°56' W 089°60'0 0.3
2015-Aug-04 07:18N 29°56' W 089°60'8 0.2
2015-Aug-02 18:07N 29°55' W 090°08'0 0.0
2015-Aug-02 17:25N 29°55' W 090°08'0 0.0
2015-Aug-02 16:29N 29°55' W 090°08'0 0.0
2015-Aug-02 15:30N 29°55' W 090°08'0 0.0
2015-Aug-02 14:31N 29°55' W 090°08'0 0.0
2015-Aug-02 12:32N 29°55' W 090°08'0 0.0
2015-Aug-02 11:32N 29°55' W 090°08'0 0.0
2015-Aug-02 10:32N 29°55' W 090°08'0 0.0
2015-Aug-02 09:31N 29°55' W 090°08'0 0.0
2015-Aug-02 08:32N 29°55' W 090°08'0 0.0
2015-Aug-02 07:33N 29°55' W 090°08'0 0.0
2015-Aug-02 06:33N 29°55' W 090°08'0 0.0
2015-Aug-02 05:33N 29°55' W 090°08'  
2015-Jul-30 23:28N 29°55' W 090°05'3 0.6
2015-Jul-30 19:29N 29°55' W 090°08'2 2.5
2015-Jul-30 18:34N 29°55' W 090°06'2 0.5
2015-Jul-30 15:27N 29°55' W 090°04'3 1.7
2015-Jul-30 13:34N 29°57' W 090°01'0 0.0
2015-Jul-30 12:24N 29°57' W 090°01'0 0.0
2015-Jul-30 02:33N 29°57' W 090°01'3 2.7
2015-Jul-30 01:20N 29°55' W 090°04'0 0.0
2015-Jul-30 00:21N 29°55' W 090°04'0 0.0
2015-Jul-29 23:26N 29°55' W 090°04'0 0.1
2015-Jul-29 22:31N 29°55' W 090°04'2 1.0
2015-Jul-29 20:32N 29°54' W 090°06'5 1.2
2015-Jul-29 16:31N 29°57' W 090°02'2 2.2
2015-Jul-29 15:27N 29°55' W 090°04'6 0.1
2015-Jul-27 15:23N 29°55' W 089°57'3 0.2
2015-Jul-26 21:30N 29°56' W 089°60'3 0.8
2015-Jul-26 18:14N 29°58' W 090°02'0 0.0
2015-Jul-26 17:06N 29°58' W 090°02'0 0.0
2015-Jul-26 16:24N 29°58' W 090°02'0 0.0
2015-Jul-26 14:06N 29°58' W 090°02'0 0.0
2015-Jul-26 13:29N 29°58' W 090°02'0 0.0
2015-Jul-26 12:23N 29°58' W 090°02'0 0.0
2015-Jul-26 11:27N 29°58' W 090°02'0 0.0
2015-Jul-26 10:31N 29°58' W 090°02'0 0.0
2015-Jul-26 09:17N 29°58' W 090°02'0 0.0
2015-Jul-26 08:13N 29°58' W 090°02'0 0.0
2015-Jul-26 07:32N 29°58' W 090°02'0 0.0
2015-Jul-26 06:32N 29°58' W 090°02'0 0.0
2015-Jul-26 05:33N 29°58' W 090°02'0 0.0
2015-Jul-26 04:33N 29°58' W 090°02'2 2.3
2015-Jul-26 03:33N 29°56' W 089°60'0 0.0
2015-Jul-26 02:21N 29°57' W 089°60'0 0.0
2015-Jul-26 01:33N 29°57' W 089°60'0 0.5
2015-Jul-26 00:33N 29°56' W 089°60'0 0.0
2015-Jul-25 23:29N 29°56' W 089°60'0 0.4
2015-Jul-25 22:28N 29°56' W 089°59'0 0.1
2015-Jul-25 17:18N 29°56' W 089°59'2 3.3
2015-Jul-25 16:33N 29°57' W 090°01'0 0.0
2015-Jul-25 15:30N 29°57' W 090°01'0 0.0
2015-Jul-25 14:33N 29°57' W 090°01'0 0.0
2015-Jul-25 13:26N 29°57' W 090°01'0 0.1
2015-Jul-25 12:31N 29°57' W 090°01'0 0.1
2015-Jul-25 11:33N 29°57' W 090°01'0 0.0
2015-Jul-25 10:33N 29°57' W 090°01'  
Track history (hours):
 
Tides and Currents Weather Stations Pressure Air Temp Water Temp Dewpoint Dewpoint Depression Visibility Wind Speed Wind Dir Waves Ship Positions

Josephine Anne

Owner: E.N. Bisso & Son, Inc., Metairie, LA. More information available from US FCC via Universal Licensing System and Coast Guard Vessel Documentation Center.

Last reported at 2015-Aug-04 10:18 UTC. Time now 2015-Aug-04 17:54 UTC.
Position N 29°55' W 090°08'.

Length 29 m; draft 4.3 m.

Type: Tug. MMSI: 367317270.

Date/timePositionNaut miles runAvg speedWind from/ knotsBaromVisibWave heightAir tempDewpointWater temp
2015-Aug-04 10:18N 29°55' W 090°08'5 5.9
2015-Aug-04 09:31N 29°57' W 090°03'3 3.0
2015-Aug-04 08:24N 29°56' W 089°60'0 0.3
2015-Aug-04 07:18N 29°56' W 089°60'8 0.2
2015-Aug-02 18:07N 29°55' W 090°08'0 0.0
2015-Aug-02 17:25N 29°55' W 090°08'0 0.0
2015-Aug-02 16:29N 29°55' W 090°08'0 0.0
2015-Aug-02 15:30N 29°55' W 090°08'0 0.0
2015-Aug-02 14:31N 29°55' W 090°08'0 0.0
2015-Aug-02 12:32N 29°55' W 090°08'0 0.0
2015-Aug-02 11:32N 29°55' W 090°08'0 0.0
2015-Aug-02 10:32N 29°55' W 090°08'0 0.0
2015-Aug-02 09:31N 29°55' W 090°08'0 0.0
2015-Aug-02 08:32N 29°55' W 090°08'0 0.0
2015-Aug-02 07:33N 29°55' W 090°08'0 0.0
2015-Aug-02 06:33N 29°55' W 090°08'0 0.0
2015-Aug-02 05:33N 29°55' W 090°08'  
2015-Jul-30 23:28N 29°55' W 090°05'3 0.6
2015-Jul-30 19:29N 29°55' W 090°08'2 2.5
2015-Jul-30 18:34N 29°55' W 090°06'2 0.5
2015-Jul-30 15:27N 29°55' W 090°04'3 1.7
2015-Jul-30 13:34N 29°57' W 090°01'0 0.0
2015-Jul-30 12:24N 29°57' W 090°01'0 0.0
2015-Jul-30 02:33N 29°57' W 090°01'3 2.7
2015-Jul-30 01:20N 29°55' W 090°04'0 0.0
2015-Jul-30 00:21N 29°55' W 090°04'0 0.0
2015-Jul-29 23:26N 29°55' W 090°04'0 0.1
2015-Jul-29 22:31N 29°55' W 090°04'2 1.0
2015-Jul-29 20:32N 29°54' W 090°06'5 1.2
2015-Jul-29 16:31N 29°57' W 090°02'2 2.2
2015-Jul-29 15:27N 29°55' W 090°04'6 0.1
2015-Jul-27 15:23N 29°55' W 089°57'3 0.2
2015-Jul-26 21:30N 29°56' W 089°60'3 0.8
2015-Jul-26 18:14N 29°58' W 090°02'0 0.0
2015-Jul-26 17:06N 29°58' W 090°02'0 0.0
2015-Jul-26 16:24N 29°58' W 090°02'0 0.0
2015-Jul-26 14:06N 29°58' W 090°02'0 0.0
2015-Jul-26 13:29N 29°58' W 090°02'0 0.0
2015-Jul-26 12:23N 29°58' W 090°02'0 0.0
2015-Jul-26 11:27N 29°58' W 090°02'0 0.0
2015-Jul-26 10:31N 29°58' W 090°02'0 0.0
2015-Jul-26 09:17N 29°58' W 090°02'0 0.0
2015-Jul-26 08:13N 29°58' W 090°02'0 0.0
2015-Jul-26 07:32N 29°58' W 090°02'0 0.0
2015-Jul-26 06:32N 29°58' W 090°02'0 0.0
2015-Jul-26 05:33N 29°58' W 090°02'0 0.0
2015-Jul-26 04:33N 29°58' W 090°02'2 2.3
2015-Jul-26 03:33N 29°56' W 089°60'0 0.0
2015-Jul-26 02:21N 29°57' W 089°60'0 0.0
2015-Jul-26 01:33N 29°57' W 089°60'0 0.5
2015-Jul-26 00:33N 29°56' W 089°60'0 0.0
2015-Jul-25 23:29N 29°56' W 089°60'0 0.4
2015-Jul-25 22:28N 29°56' W 089°59'0 0.1
2015-Jul-25 17:18N 29°56' W 089°59'2 3.3
2015-Jul-25 16:33N 29°57' W 090°01'0 0.0
2015-Jul-25 15:30N 29°57' W 090°01'0 0.0
2015-Jul-25 14:33N 29°57' W 090°01'0 0.0
2015-Jul-25 13:26N 29°57' W 090°01'0 0.1
2015-Jul-25 12:31N 29°57' W 090°01'0 0.1
2015-Jul-25 11:33N 29°57' W 090°01'0 0.0
2015-Jul-25 10:33N 29°57' W 090°01'  

Dump ship's entire track history